createdAt,value
2022-12-05T00:01:52.589Z,3.63
2022-12-05T00:04:55.726Z,3.80
2022-12-05T00:07:58.791Z,2.80
2022-12-05T00:11:01.869Z,3.50
2022-12-05T00:14:06.316Z,3.23
2022-12-05T00:17:10.981Z,3.70
2022-12-05T00:20:14.177Z,3.57
2022-12-05T00:23:17.224Z,3.23
2022-12-05T00:26:20.996Z,3.50
2022-12-05T00:29:23.992Z,3.20
2022-12-05T00:32:30.137Z,2.90
2022-12-05T00:35:34.649Z,2.97
2022-12-05T00:38:38.375Z,3.50
2022-12-05T00:41:41.483Z,2.90
2022-12-05T00:44:44.570Z,3.30
2022-12-05T00:47:49.032Z,3.43
2022-12-05T00:50:52.042Z,3.30
2022-12-05T00:53:56.044Z,3.43
2022-12-05T00:56:59.136Z,3.20
2022-12-05T01:00:02.226Z,3.00
2022-12-05T01:03:06.765Z,3.10
2022-12-05T01:06:11.359Z,3.17
2022-12-05T01:09:16.371Z,3.20
2022-12-05T01:12:19.450Z,2.90
2022-12-05T01:15:22.486Z,3.30
2022-12-05T01:18:28.069Z,2.67
2022-12-05T01:21:31.185Z,3.07
2022-12-05T01:24:34.231Z,2.90
2022-12-05T01:27:37.276Z,3.00
2022-12-05T01:30:41.290Z,3.33
2022-12-05T01:33:45.851Z,3.50
2022-12-05T01:36:49.337Z,3.40
2022-12-05T01:39:52.381Z,2.83
2022-12-05T01:42:55.912Z,3.43
2022-12-05T01:45:59.097Z,3.20
2022-12-05T01:49:08.828Z,2.93
2022-12-05T01:52:18.305Z,3.00
2022-12-05T01:55:21.736Z,2.87
2022-12-05T01:58:29.569Z,2.70
2022-12-05T02:01:32.911Z,3.27
2022-12-05T02:04:51.560Z,3.37
2022-12-05T02:07:55.075Z,3.50
2022-12-05T02:10:59.618Z,2.77
2022-12-05T02:14:25.810Z,2.57
2022-12-05T02:17:37.586Z,2.80
2022-12-05T02:20:52.955Z,2.77
2022-12-05T02:24:32.357Z,3.00
2022-12-05T02:27:54.987Z,3.07
2022-12-05T02:31:06.526Z,2.77
2022-12-05T02:34:18.416Z,2.90
2022-12-05T02:37:29.492Z,3.00
2022-12-05T02:40:40.817Z,2.87
2022-12-05T02:43:49.057Z,3.43
2022-12-05T02:46:55.392Z,2.93
2022-12-05T02:49:59.982Z,3.23
2022-12-05T02:53:09.446Z,2.90
2022-12-05T02:56:13.884Z,3.23
2022-12-05T02:59:22.884Z,2.77
2022-12-05T03:02:29.607Z,3.20
2022-12-05T03:05:42.340Z,3.17
2022-12-05T03:08:50.015Z,2.80
2022-12-05T03:11:56.192Z,2.63
2022-12-05T03:15:02.379Z,3.17
2022-12-05T03:18:13.165Z,2.97
2022-12-05T03:21:25.978Z,2.80
2022-12-05T03:24:30.048Z,2.60
2022-12-05T03:27:42.604Z,3.07
2022-12-05T03:30:49.159Z,2.90
2022-12-05T03:33:59.007Z,2.80
2022-12-05T03:37:06.322Z,2.77
2022-12-05T03:40:16.534Z,3.50
2022-12-05T03:43:27.201Z,3.23
2022-12-05T03:46:33.688Z,3.33
2022-12-05T03:49:42.592Z,3.17
2022-12-05T03:53:18.024Z,3.27
2022-12-05T03:56:20.153Z,3.03
2022-12-05T03:59:31.628Z,2.80
2022-12-05T04:02:45.505Z,2.70
2022-12-05T04:05:55.244Z,3.00
2022-12-05T04:09:02.848Z,3.00
2022-12-05T04:12:10.758Z,2.90
2022-12-05T04:15:20.642Z,5.00
2022-12-05T04:18:27.238Z,9.13
2022-12-05T04:21:41.687Z,6.60
2022-12-05T04:25:02.019Z,8.53
2022-12-05T04:28:21.509Z,7.70
2022-12-05T04:31:28.826Z,7.47
2022-12-05T04:34:34.007Z,7.03
2022-12-05T04:37:43.815Z,7.93
2022-12-05T04:40:53.939Z,7.50
2022-12-05T04:44:00.671Z,7.20
2022-12-05T04:47:07.325Z,6.20
2022-12-05T04:50:13.669Z,7.20
2022-12-05T04:53:19.145Z,7.30
2022-12-05T04:56:25.483Z,7.23
2022-12-05T04:59:28.571Z,7.00
2022-12-05T05:02:36.317Z,7.67
2022-12-05T05:05:40.497Z,6.70
2022-12-05T05:08:50.539Z,6.20
2022-12-05T05:11:53.551Z,6.63
2022-12-05T05:14:56.599Z,7.17
2022-12-05T05:17:59.789Z,6.53
2022-12-05T05:21:02.856Z,7.43
2022-12-05T05:24:09.490Z,6.93
2022-12-05T05:27:12.501Z,7.57
2022-12-05T05:30:15.802Z,7.07
2022-12-05T05:33:18.777Z,7.10
2022-12-05T05:36:23.776Z,7.07
2022-12-05T05:39:29.878Z,6.87
2022-12-05T05:42:32.918Z,7.17
2022-12-05T05:45:37.425Z,6.57
2022-12-05T05:48:40.858Z,5.90
2022-12-05T05:51:43.844Z,6.00
2022-12-05T05:54:48.321Z,5.80
2022-12-05T05:57:51.332Z,5.73
2022-12-05T06:00:54.409Z,5.67
2022-12-05T06:03:57.770Z,5.67
2022-12-05T06:07:00.891Z,5.27
2022-12-05T06:10:06.406Z,5.63
2022-12-05T06:13:09.439Z,4.50
2022-12-05T06:16:15.059Z,4.60
2022-12-05T06:19:18.138Z,5.70
2022-12-05T06:22:21.237Z,5.60
2022-12-05T06:25:25.624Z,5.10
2022-12-05T06:28:28.754Z,4.87
2022-12-05T06:31:34.005Z,4.67
2022-12-05T06:34:37.550Z,4.60
2022-12-05T06:37:40.563Z,4.60
2022-12-05T06:40:46.259Z,5.00
2022-12-05T06:43:49.347Z,4.43
2022-12-05T06:46:52.408Z,4.30
2022-12-05T06:49:55.712Z,4.70
2022-12-05T06:52:59.073Z,4.50
2022-12-05T06:56:08.358Z,4.60
2022-12-05T06:59:11.395Z,4.60
2022-12-05T07:02:14.897Z,5.20
2022-12-05T07:05:18.096Z,4.87
2022-12-05T07:08:21.144Z,5.03
2022-12-05T07:11:25.675Z,4.63
2022-12-05T07:14:47.090Z,4.50
2022-12-05T07:17:51.435Z,5.53
2022-12-05T07:21:14.351Z,4.20
2022-12-05T07:24:17.760Z,4.60
2022-12-05T07:27:27.340Z,4.50
2022-12-05T07:30:31.165Z,4.07
2022-12-05T07:33:34.389Z,4.27
2022-12-05T07:36:37.457Z,3.83
2022-12-05T07:39:40.636Z,3.80
2022-12-05T07:42:45.089Z,3.87
2022-12-05T07:45:48.383Z,4.50
2022-12-05T07:48:52.362Z,4.07
2022-12-05T07:51:55.419Z,4.27
2022-12-05T07:54:59.244Z,4.70
2022-12-05T07:58:03.686Z,4.40
2022-12-05T08:01:10.675Z,4.50
2022-12-05T08:04:15.842Z,3.80
2022-12-05T08:07:19.074Z,3.90
2022-12-05T08:10:22.083Z,4.43
2022-12-05T08:13:26.492Z,3.77
2022-12-05T08:16:31.375Z,4.40
2022-12-05T08:19:34.919Z,3.90
2022-12-05T08:22:38.006Z,3.50
2022-12-05T08:25:41.449Z,4.10
2022-12-05T08:28:46.390Z,3.87
2022-12-05T08:31:51.246Z,3.50
2022-12-05T08:34:54.812Z,3.73
2022-12-05T08:37:57.896Z,4.60
2022-12-05T08:41:02.457Z,3.73
2022-12-05T08:44:08.273Z,4.40
2022-12-05T08:47:11.260Z,3.47
2022-12-05T08:50:14.237Z,4.20
2022-12-05T08:53:17.730Z,4.70
2022-12-05T08:56:26.497Z,4.20
2022-12-05T08:59:32.440Z,5.57
2022-12-05T09:02:35.558Z,4.57
2022-12-05T09:05:38.979Z,4.60
2022-12-05T09:08:43.614Z,4.93
2022-12-05T09:11:49.261Z,4.23
2022-12-05T09:14:53.925Z,4.80
2022-12-05T09:17:57.029Z,4.60
2022-12-05T09:21:00.108Z,3.90
2022-12-05T09:24:03.238Z,3.87
2022-12-05T09:27:06.177Z,3.97
2022-12-05T09:30:11.849Z,4.10
2022-12-05T09:33:14.853Z,3.63
2022-12-05T09:36:20.014Z,4.13
2022-12-05T09:39:23.423Z,3.90
2022-12-05T09:42:40.323Z,3.67
2022-12-05T09:45:53.677Z,3.70
2022-12-05T09:48:58.345Z,4.00
2022-12-05T09:52:02.279Z,3.60
2022-12-05T09:55:12.209Z,3.87
2022-12-05T09:58:24.001Z,4.00
2022-12-05T10:01:38.655Z,3.87
2022-12-05T10:05:00.608Z,3.80
2022-12-05T10:08:14.017Z,3.50
2022-12-05T10:11:25.604Z,3.70
2022-12-05T10:14:39.486Z,3.97
2022-12-05T10:17:48.139Z,3.73
2022-12-05T10:20:53.690Z,4.33
2022-12-05T10:24:00.401Z,3.67
2022-12-05T10:27:08.145Z,3.93
2022-12-05T10:30:16.302Z,4.13
2022-12-05T10:33:23.289Z,4.70
2022-12-05T10:36:27.012Z,4.20
2022-12-05T10:39:30.104Z,4.10
2022-12-05T10:42:36.604Z,4.73
2022-12-05T10:45:45.025Z,4.77
2022-12-05T10:48:49.457Z,5.13
2022-12-05T10:51:53.129Z,4.23
2022-12-05T10:55:00.352Z,4.70
2022-12-05T10:58:17.514Z,4.60
2022-12-05T11:01:21.196Z,4.37
2022-12-05T11:04:30.064Z,4.50
2022-12-05T11:07:35.306Z,4.80
2022-12-05T11:10:41.087Z,4.93
2022-12-05T11:13:54.259Z,5.03
2022-12-05T11:16:59.380Z,4.93
2022-12-05T11:20:05.473Z,5.20
2022-12-05T11:23:26.787Z,4.90
2022-12-05T11:26:37.233Z,5.10
2022-12-05T11:29:41.246Z,5.50
2022-12-05T11:32:44.304Z,5.60
2022-12-05T11:35:50.546Z,5.53
2022-12-05T11:38:54.273Z,6.20
2022-12-05T11:42:21.707Z,5.33
2022-12-05T11:45:45.313Z,5.43
2022-12-05T11:49:14.232Z,5.47
2022-12-05T11:52:31.437Z,5.23
2022-12-05T11:55:43.880Z,5.80
2022-12-05T11:59:02.286Z,5.60
2022-12-05T12:02:20.237Z,5.80
2022-12-05T12:05:33.224Z,7.13
2022-12-05T12:08:48.795Z,6.30
2022-12-05T12:12:00.897Z,7.77
2022-12-05T12:15:21.125Z,6.93
2022-12-05T12:18:46.487Z,7.20
2022-12-05T12:22:07.726Z,7.00
2022-12-05T12:25:33.305Z,6.97
2022-12-05T12:28:46.276Z,8.07
2022-12-05T12:31:59.720Z,7.37
2022-12-05T12:35:20.994Z,8.70
2022-12-05T12:38:56.911Z,8.50
2022-12-05T12:42:21.677Z,8.37
2022-12-05T12:45:40.704Z,7.87
2022-12-05T12:49:06.517Z,8.77
2022-12-05T12:52:16.173Z,8.00
2022-12-05T12:55:26.081Z,7.30
2022-12-05T12:58:48.262Z,6.87
2022-12-05T13:01:59.119Z,6.30
2022-12-05T13:05:07.911Z,6.80
2022-12-05T13:08:18.184Z,7.47
2022-12-05T13:11:23.253Z,6.63
2022-12-05T13:14:30.612Z,7.00
2022-12-05T13:17:34.560Z,7.00
2022-12-05T13:20:38.075Z,7.27
2022-12-05T13:23:48.021Z,6.70
2022-12-05T13:26:51.761Z,7.27
2022-12-05T13:29:59.559Z,7.43
2022-12-05T13:33:10.338Z,6.60
2022-12-05T13:36:33.646Z,6.60
2022-12-05T13:39:54.000Z,6.20
2022-12-05T13:43:04.441Z,6.43
2022-12-05T13:46:13.920Z,6.00
2022-12-05T13:49:33.026Z,6.53
2022-12-05T13:52:45.388Z,6.40
2022-12-05T13:55:58.037Z,6.03
2022-12-05T13:59:01.098Z,6.10
2022-12-05T14:02:47.241Z,6.07
2022-12-05T14:05:53.390Z,5.73
2022-12-05T14:08:56.477Z,5.83
2022-12-05T14:12:45.496Z,6.27
2022-12-05T14:15:50.235Z,5.67
2022-12-05T14:19:04.278Z,6.50
2022-12-05T14:22:31.311Z,6.00
2022-12-05T14:25:59.001Z,5.53
2022-12-05T14:29:19.359Z,6.27
2022-12-05T14:32:26.317Z,6.13
2022-12-05T14:35:32.894Z,6.37
2022-12-05T14:38:38.003Z,6.37
2022-12-05T14:41:41.229Z,5.90
2022-12-05T14:44:48.601Z,5.97
2022-12-05T14:47:54.163Z,5.70
2022-12-05T14:51:00.222Z,5.87
2022-12-05T14:54:07.482Z,5.93
2022-12-05T14:57:16.297Z,6.10
2022-12-05T15:00:23.284Z,5.67
2022-12-05T15:03:31.223Z,6.00
2022-12-05T15:06:43.779Z,6.10
2022-12-05T15:09:57.274Z,6.10
2022-12-05T15:13:05.421Z,5.80
2022-12-05T15:16:16.105Z,5.70
2022-12-05T15:19:24.230Z,6.63
2022-12-05T15:22:30.600Z,5.93
2022-12-05T15:25:33.981Z,5.40
2022-12-05T15:28:37.040Z,5.63
2022-12-05T15:31:45.973Z,5.63
2022-12-05T15:34:55.315Z,5.27
2022-12-05T15:38:03.164Z,5.50
2022-12-05T15:41:06.238Z,5.20
2022-12-05T15:44:12.681Z,6.03
2022-12-05T15:47:21.868Z,5.50
2022-12-05T15:50:31.728Z,5.80
2022-12-05T15:53:39.654Z,5.23
2022-12-05T15:56:46.817Z,5.47
2022-12-05T15:59:55.570Z,5.37
2022-12-05T16:03:05.296Z,5.57
2022-12-05T16:06:12.378Z,5.10
2022-12-05T16:09:19.178Z,5.63
2022-12-05T16:12:27.328Z,4.87
2022-12-05T16:15:30.528Z,5.60
2022-12-05T16:18:34.119Z,5.77
2022-12-05T16:21:39.504Z,5.60
2022-12-05T16:24:48.401Z,5.20
2022-12-05T16:27:59.073Z,5.70
2022-12-05T16:31:05.388Z,5.80
2022-12-05T16:34:15.332Z,5.80
2022-12-05T16:37:26.782Z,5.50
2022-12-05T16:40:31.207Z,5.30
2022-12-05T16:43:45.803Z,5.60
2022-12-05T16:46:48.967Z,5.30
2022-12-05T16:49:52.753Z,5.30
2022-12-05T16:53:03.119Z,4.73
2022-12-05T16:56:11.163Z,5.30
2022-12-05T16:59:22.543Z,8.70
2022-12-05T17:02:25.727Z,11.50
2022-12-05T17:05:30.265Z,12.70
2022-12-05T17:08:33.489Z,12.70
2022-12-05T17:11:41.107Z,14.17
2022-12-05T17:14:44.263Z,14.03
2022-12-05T17:17:47.926Z,15.17
2022-12-05T17:20:53.965Z,15.33
2022-12-05T17:23:57.051Z,16.10
2022-12-05T17:27:01.545Z,14.93
2022-12-05T17:30:05.161Z,15.00
2022-12-05T17:33:11.000Z,14.80
2022-12-05T17:36:14.638Z,14.97
2022-12-05T17:39:17.706Z,14.27
2022-12-05T17:42:22.156Z,13.77
2022-12-05T17:45:25.219Z,14.13
2022-12-05T17:48:28.653Z,13.87
2022-12-05T17:51:31.683Z,13.80
2022-12-05T17:54:34.810Z,14.87
2022-12-05T17:57:39.218Z,15.73
2022-12-05T18:00:43.355Z,15.60
2022-12-05T18:03:46.500Z,16.50
2022-12-05T18:06:49.524Z,14.53
2022-12-05T18:09:52.764Z,14.40
2022-12-05T18:12:57.180Z,14.93
2022-12-05T18:16:01.447Z,15.27
2022-12-05T18:19:04.523Z,15.60
2022-12-05T18:22:07.603Z,14.70
2022-12-05T18:25:12.836Z,13.50
2022-12-05T18:28:19.574Z,14.40
2022-12-05T18:31:24.197Z,14.60
2022-12-05T18:34:27.424Z,13.53
2022-12-05T18:37:30.632Z,14.20
2022-12-05T18:40:33.671Z,13.47
2022-12-05T18:43:38.226Z,12.40
2022-12-05T18:46:41.468Z,12.80
2022-12-05T18:49:44.576Z,12.87
2022-12-05T18:52:47.570Z,12.43
2022-12-05T18:56:13.502Z,11.60
2022-12-05T18:59:17.441Z,11.63
2022-12-05T19:02:20.484Z,13.00
2022-12-05T19:05:23.544Z,12.57
2022-12-05T19:08:26.846Z,12.77
2022-12-05T19:11:30.464Z,12.20
2022-12-05T19:14:35.443Z,10.83
2022-12-05T19:17:38.554Z,10.70
2022-12-05T19:20:41.712Z,11.50
2022-12-05T19:23:44.827Z,11.00
2022-12-05T19:26:48.897Z,10.87
2022-12-05T19:29:53.330Z,10.70
2022-12-05T19:32:56.466Z,11.37
2022-12-05T19:36:03.312Z,11.00
2022-12-05T19:39:10.231Z,10.30
2022-12-05T19:42:13.312Z,9.70
2022-12-05T19:45:18.285Z,10.47
2022-12-05T19:48:21.401Z,9.50
2022-12-05T19:51:24.856Z,9.10
2022-12-05T19:54:28.144Z,9.50
2022-12-05T19:57:31.605Z,8.77
2022-12-05T20:00:36.189Z,9.70
2022-12-05T20:03:39.776Z,8.93
2022-12-05T20:06:44.939Z,8.40
2022-12-05T20:09:48.320Z,9.23
2022-12-05T20:12:51.388Z,9.37
2022-12-05T20:15:55.836Z,9.00
2022-12-05T20:18:59.897Z,8.70
2022-12-05T20:22:03.126Z,8.47
2022-12-05T20:25:06.960Z,9.57
2022-12-05T20:28:10.017Z,8.20
2022-12-05T20:31:16.444Z,8.07
2022-12-05T20:34:19.615Z,8.10
2022-12-05T20:37:22.709Z,8.23
2022-12-05T20:40:25.784Z,7.63
2022-12-05T20:43:29.538Z,8.50
2022-12-05T20:46:35.118Z,7.77
2022-12-05T20:49:38.277Z,8.40
2022-12-05T20:52:46.628Z,8.00
2022-12-05T20:55:50.098Z,7.83
2022-12-05T20:58:55.873Z,8.17
2022-12-05T21:02:00.339Z,7.83
2022-12-05T21:05:03.546Z,7.60
2022-12-05T21:08:07.385Z,9.07
2022-12-05T21:11:12.096Z,8.63
2022-12-05T21:14:15.116Z,8.23
2022-12-05T21:17:19.603Z,7.97
2022-12-05T21:20:22.760Z,9.00
2022-12-05T21:23:26.041Z,8.27
2022-12-05T21:26:31.765Z,8.30
2022-12-05T21:29:34.775Z,8.17
2022-12-05T21:32:39.362Z,8.23
2022-12-05T21:35:42.352Z,7.93
2022-12-05T21:38:48.403Z,7.87
2022-12-05T21:41:56.145Z,7.43
2022-12-05T21:44:59.316Z,8.40
2022-12-05T21:48:03.882Z,7.30
2022-12-05T21:51:08.204Z,8.40
2022-12-05T21:54:11.387Z,8.20
2022-12-05T21:57:14.428Z,7.80
2022-12-05T22:00:18.018Z,7.90
2022-12-05T22:03:22.478Z,7.70
2022-12-05T22:06:25.554Z,7.43
2022-12-05T22:09:28.644Z,7.90
2022-12-05T22:12:34.368Z,7.00
2022-12-05T22:15:37.539Z,7.30
2022-12-05T22:18:42.870Z,7.17
2022-12-05T22:21:45.902Z,6.90
2022-12-05T22:24:48.883Z,6.67
2022-12-05T22:27:51.942Z,7.20
2022-12-05T22:30:56.603Z,7.40
2022-12-05T22:34:01.107Z,7.90
2022-12-05T22:37:04.151Z,7.00
2022-12-05T22:40:08.676Z,6.93
2022-12-05T22:43:11.704Z,6.70
2022-12-05T22:46:18.336Z,6.43
2022-12-05T22:49:25.192Z,6.43
2022-12-05T22:52:28.493Z,7.00
2022-12-05T22:55:32.721Z,6.70
2022-12-05T22:58:36.568Z,6.80
2022-12-05T23:01:39.820Z,7.13
2022-12-05T23:04:44.216Z,6.47
2022-12-05T23:07:47.254Z,6.17
2022-12-05T23:10:50.320Z,6.30
2022-12-05T23:14:01.457Z,6.97
2022-12-05T23:17:04.962Z,7.17
2022-12-05T23:20:10.200Z,6.90
2022-12-05T23:23:13.318Z,6.50
2022-12-05T23:26:17.318Z,6.37
2022-12-05T23:29:20.525Z,6.50
2022-12-05T23:32:23.641Z,6.20
2022-12-05T23:35:29.162Z,6.20
2022-12-05T23:38:32.354Z,6.47
2022-12-05T23:41:35.482Z,6.60
2022-12-05T23:44:38.575Z,5.73
2022-12-05T23:47:41.654Z,5.90
2022-12-05T23:50:46.081Z,5.67
2022-12-05T23:53:53.313Z,6.10
2022-12-05T23:56:56.400Z,6.80
2022-12-05T23:59:59.797Z,6.50
